createdAt,value
2023-03-04T00:01:06.911Z,99718.38
2023-03-04T00:03:40.034Z,99722.19
2023-03-04T00:06:13.028Z,99720.34
2023-03-04T00:08:45.925Z,99718.63
2023-03-04T00:11:18.777Z,99719.63
2023-03-04T00:13:53.245Z,99719.88
2023-03-04T00:16:27.428Z,99716.91
2023-03-04T00:19:01.007Z,99716.81
2023-03-04T00:21:34.130Z,99725.56
2023-03-04T00:24:08.019Z,99724.38
2023-03-04T00:26:48.074Z,99722.97
2023-03-04T00:29:23.003Z,99724.50
2023-03-04T00:31:56.101Z,99728.97
2023-03-04T00:34:30.741Z,99722.91
2023-03-04T00:37:05.572Z,99734.81
2023-03-04T00:39:38.588Z,99740.63
2023-03-04T00:42:11.421Z,99730.00
2023-03-04T00:44:46.412Z,99729.06
2023-03-04T00:47:19.643Z,99729.69
2023-03-04T00:49:53.031Z,99733.84
2023-03-04T00:52:25.890Z,99735.66
2023-03-04T00:54:58.765Z,99731.34
2023-03-04T00:57:31.642Z,99730.25
2023-03-04T01:00:07.840Z,99733.63
2023-03-04T01:02:41.167Z,99725.53
2023-03-04T01:05:14.258Z,99730.72
2023-03-04T01:07:47.200Z,99737.31
2023-03-04T01:10:20.540Z,99721.69
2023-03-04T01:12:53.705Z,99726.28
2023-03-04T01:15:28.252Z,99720.81
2023-03-04T01:18:01.659Z,99723.69
2023-03-04T01:20:34.637Z,99721.47
2023-03-04T01:23:09.001Z,99722.13
2023-03-04T01:25:41.837Z,99722.03
2023-03-04T01:28:14.864Z,99726.19
2023-03-04T01:30:49.174Z,99721.78
2023-03-04T01:33:23.125Z,99723.41
2023-03-04T01:35:55.974Z,99721.41
2023-03-04T01:38:29.184Z,99714.38
2023-03-04T01:41:02.469Z,99719.56
2023-03-04T01:43:37.858Z,99715.75
2023-03-04T01:46:15.167Z,99720.41
2023-03-04T01:48:48.707Z,99713.75
2023-03-04T01:51:22.856Z,99712.47
2023-03-04T01:53:56.140Z,99709.34
2023-03-04T01:56:31.376Z,99705.75
2023-03-04T01:59:12.876Z,99707.63
2023-03-04T02:01:50.404Z,99695.94
2023-03-04T02:04:26.164Z,99703.09
2023-03-04T02:07:00.556Z,99697.97
2023-03-04T02:09:35.784Z,99697.63
2023-03-04T02:12:08.668Z,99702.16
2023-03-04T02:14:41.624Z,99694.50
2023-03-04T02:17:16.952Z,99698.75
2023-03-04T02:19:57.734Z,99695.50
2023-03-04T02:22:30.762Z,99693.81
2023-03-04T02:25:09.197Z,99688.81
2023-03-04T02:27:43.735Z,99689.28
2023-03-04T02:30:18.474Z,99692.63
2023-03-04T02:32:51.333Z,99681.75
2023-03-04T02:35:24.655Z,99685.81
2023-03-04T02:37:57.592Z,99681.25
2023-03-04T02:40:34.472Z,99673.69
2023-03-04T02:43:11.349Z,99674.88
2023-03-04T02:45:46.618Z,99677.94
2023-03-04T02:48:21.944Z,99676.13
2023-03-04T02:50:55.578Z,99667.53
2023-03-04T02:53:28.840Z,99663.72
2023-03-04T02:56:01.793Z,99659.94
2023-03-04T02:58:41.508Z,99665.19
2023-03-04T03:01:16.341Z,99673.41
2023-03-04T03:03:50.336Z,99668.47
2023-03-04T03:06:23.159Z,99669.13
2023-03-04T03:08:56.288Z,99662.25
2023-03-04T03:11:29.470Z,99668.69
2023-03-04T03:14:03.756Z,99679.41
2023-03-04T03:16:37.144Z,99671.56
2023-03-04T03:19:11.567Z,99670.91
2023-03-04T03:21:45.110Z,99678.25
2023-03-04T03:24:18.167Z,99664.28
2023-03-04T03:26:50.994Z,99671.06
2023-03-04T03:29:25.240Z,99665.53
2023-03-04T03:31:58.118Z,99669.41
2023-03-04T03:34:31.001Z,99665.63
2023-03-04T03:37:03.976Z,99664.47
2023-03-04T03:39:36.943Z,99665.47
2023-03-04T03:42:10.035Z,99669.16
2023-03-04T03:44:44.467Z,99671.09
2023-03-04T03:47:17.728Z,99665.31
2023-03-04T03:49:50.602Z,99670.19
2023-03-04T03:52:23.577Z,99664.78
2023-03-04T03:54:56.432Z,99667.19
2023-03-04T03:57:29.696Z,99663.63
2023-03-04T04:00:04.991Z,99670.41
2023-03-04T04:02:45.304Z,99672.47
2023-03-04T04:05:18.218Z,99678.28
2023-03-04T04:07:53.739Z,99672.91
2023-03-04T04:10:26.887Z,99673.13
2023-03-04T04:12:59.826Z,99671.84
2023-03-04T04:15:34.110Z,99676.06
2023-03-04T04:18:07.394Z,99666.94
2023-03-04T04:20:40.280Z,99665.56
2023-03-04T04:23:13.209Z,99669.09
2023-03-04T04:25:47.017Z,99667.84
2023-03-04T04:28:19.779Z,99668.78
2023-03-04T04:30:54.561Z,99669.66
2023-03-04T04:33:28.179Z,99666.44
2023-03-04T04:36:01.328Z,99664.16
2023-03-04T04:38:34.521Z,99666.31
2023-03-04T04:41:07.825Z,99660.50
2023-03-04T04:43:40.694Z,99660.34
2023-03-04T04:46:15.437Z,99655.94
2023-03-04T04:48:48.573Z,99662.00
2023-03-04T04:51:21.408Z,99656.88
2023-03-04T04:53:54.285Z,99653.25
2023-03-04T04:56:28.091Z,99652.75
2023-03-04T04:59:02.635Z,99652.75
2023-03-04T05:01:37.412Z,99647.38
2023-03-04T05:04:10.357Z,99642.06
2023-03-04T05:06:43.283Z,99646.78
2023-03-04T05:09:16.281Z,99650.25
2023-03-04T05:11:49.320Z,99652.88
2023-03-04T05:14:22.452Z,99650.00
2023-03-04T05:16:56.671Z,99645.38
2023-03-04T05:19:29.727Z,99648.53
2023-03-04T05:22:02.948Z,99649.03
2023-03-04T05:24:35.838Z,99653.44
2023-03-04T05:27:09.213Z,99652.72
2023-03-04T05:29:45.032Z,99655.16
2023-03-04T05:32:20.072Z,99663.63
2023-03-04T05:34:53.143Z,99653.25
2023-03-04T05:37:26.309Z,99654.69
2023-03-04T05:39:59.203Z,99653.00
2023-03-04T05:42:32.204Z,99658.34
2023-03-04T05:45:05.760Z,99656.56
2023-03-04T05:47:40.294Z,99663.13
2023-03-04T05:50:13.682Z,99654.59
2023-03-04T05:52:46.934Z,99656.47
2023-03-04T05:55:20.049Z,99649.84
2023-03-04T05:57:53.134Z,99665.31
2023-03-04T06:00:27.243Z,99659.34
2023-03-04T06:03:01.472Z,99659.84
2023-03-04T06:05:34.315Z,99659.22
2023-03-04T06:08:07.339Z,99669.97
2023-03-04T06:10:41.883Z,99673.97
2023-03-04T06:13:15.326Z,99668.56
2023-03-04T06:15:48.623Z,99676.91
2023-03-04T06:18:23.062Z,99681.47
2023-03-04T06:20:58.861Z,99675.56
2023-03-04T06:23:32.566Z,99670.50
2023-03-04T06:26:09.311Z,99676.91
2023-03-04T06:28:42.253Z,99678.69
2023-03-04T06:31:15.264Z,99676.50
2023-03-04T06:33:49.585Z,99680.00
2023-03-04T06:36:22.765Z,99681.50
2023-03-04T06:38:55.890Z,99679.06
2023-03-04T06:41:29.077Z,99691.59
2023-03-04T06:44:02.557Z,99688.28
2023-03-04T06:46:36.107Z,99685.09
2023-03-04T06:49:10.552Z,99686.59
2023-03-04T06:51:43.755Z,99681.69
2023-03-04T06:54:16.699Z,99692.59
2023-03-04T06:56:49.653Z,99697.59
2023-03-04T06:59:22.513Z,99693.00
2023-03-04T07:01:55.804Z,99710.81
2023-03-04T07:04:30.101Z,99701.69
2023-03-04T07:07:02.915Z,99707.25
2023-03-04T07:09:35.989Z,99703.13
2023-03-04T07:12:10.300Z,99710.31
2023-03-04T07:14:43.188Z,99711.47
2023-03-04T07:17:16.213Z,99709.78
2023-03-04T07:19:50.364Z,99714.69
2023-03-04T07:22:23.182Z,99718.06
2023-03-04T07:24:56.139Z,99716.09
2023-03-04T07:27:28.964Z,99721.59
2023-03-04T07:30:01.748Z,99720.38
2023-03-04T07:32:35.963Z,99722.16
2023-03-04T07:35:10.856Z,99727.13
2023-03-04T07:37:43.739Z,99732.09
2023-03-04T07:40:16.947Z,99727.28
2023-03-04T07:42:51.314Z,99728.19
2023-03-04T07:45:25.387Z,99727.28
2023-03-04T07:48:01.150Z,99728.69
2023-03-04T07:50:35.690Z,99722.59
2023-03-04T07:53:08.831Z,99732.34
2023-03-04T07:55:41.695Z,99728.44
2023-03-04T07:58:14.657Z,99731.91
2023-03-04T08:00:47.557Z,99726.22
2023-03-04T08:03:20.432Z,99721.78
2023-03-04T08:05:54.762Z,99724.91
2023-03-04T08:08:27.590Z,99724.91
2023-03-04T08:11:02.783Z,99724.25
2023-03-04T08:13:36.482Z,99730.31
2023-03-04T08:16:10.105Z,99726.03
2023-03-04T08:18:43.833Z,99717.94
2023-03-04T08:21:19.923Z,99722.22
2023-03-04T08:23:53.622Z,99729.59
2023-03-04T08:26:28.821Z,99728.50
2023-03-04T08:29:03.410Z,99725.06
2023-03-04T08:31:36.977Z,99732.78
2023-03-04T08:34:11.550Z,99731.88
2023-03-04T08:36:45.825Z,99734.91
2023-03-04T08:39:19.762Z,99734.91
2023-03-04T08:41:52.613Z,99733.22
2023-03-04T08:44:26.796Z,99730.69
2023-03-04T08:46:59.747Z,99736.03
2023-03-04T08:49:32.567Z,99734.06
2023-03-04T08:52:07.546Z,99735.56
2023-03-04T08:54:40.511Z,99734.06
2023-03-04T08:57:13.357Z,99736.34
2023-03-04T08:59:46.192Z,99741.97
2023-03-04T09:02:19.060Z,99743.97
2023-03-04T09:04:51.777Z,99747.28
2023-03-04T09:07:25.968Z,99735.13
2023-03-04T09:09:58.877Z,99737.72
2023-03-04T09:12:31.645Z,99741.34
2023-03-04T09:15:11.602Z,99746.69
2023-03-04T09:17:44.797Z,99746.56
2023-03-04T09:20:17.766Z,99745.16
2023-03-04T09:22:52.292Z,99749.03
2023-03-04T09:25:25.076Z,99743.69
2023-03-04T09:27:58.076Z,99744.81
2023-03-04T09:30:31.018Z,99750.31
2023-03-04T09:33:03.862Z,99741.63
2023-03-04T09:35:36.995Z,99745.63
2023-03-04T09:38:11.642Z,99744.75
2023-03-04T09:40:48.176Z,99740.03
2023-03-04T09:43:27.552Z,99742.25
2023-03-04T09:46:04.063Z,99746.06
2023-03-04T09:48:44.807Z,99747.66
2023-03-04T09:51:24.143Z,99743.81
2023-03-04T09:54:08.383Z,99738.50
2023-03-04T09:56:44.991Z,99745.09
2023-03-04T09:59:25.809Z,99741.47
2023-03-04T10:02:00.761Z,99743.31
2023-03-04T10:04:40.669Z,99746.31
2023-03-04T10:07:19.855Z,99741.47
2023-03-04T10:10:01.281Z,99741.94
2023-03-04T10:12:40.147Z,99736.94
2023-03-04T10:15:24.470Z,99738.38
2023-03-04T10:18:03.626Z,99738.19
2023-03-04T10:20:48.661Z,99735.09
2023-03-04T10:23:25.773Z,99728.97
2023-03-04T10:26:02.376Z,99734.47
2023-03-04T10:28:36.466Z,99728.53
2023-03-04T10:31:17.121Z,99732.44
2023-03-04T10:33:51.521Z,99734.72
2023-03-04T10:36:37.876Z,99728.53
2023-03-04T10:39:12.829Z,99733.50
2023-03-04T10:41:56.180Z,99731.47
2023-03-04T10:44:30.342Z,99729.25
2023-03-04T10:47:03.322Z,99725.81
2023-03-04T10:49:51.314Z,99726.13
2023-03-04T10:52:32.438Z,99719.31
2023-03-04T10:55:15.682Z,99726.91
2023-03-04T10:57:53.433Z,99709.31
2023-03-04T11:00:30.512Z,99719.06
2023-03-04T11:03:29.352Z,99718.34
2023-03-04T11:06:16.912Z,99716.50
2023-03-04T11:08:56.724Z,99712.81
2023-03-04T11:11:34.760Z,99712.34
2023-03-04T11:14:19.826Z,99710.06
2023-03-04T11:16:56.091Z,99712.56
2023-03-04T11:19:36.487Z,99700.47
2023-03-04T11:22:15.433Z,99696.59
2023-03-04T11:24:57.335Z,99689.38
2023-03-04T11:27:39.377Z,99698.88
2023-03-04T11:30:28.126Z,99700.38
2023-03-04T11:33:11.173Z,99698.50
2023-03-04T11:35:53.121Z,99697.06
2023-03-04T11:38:32.598Z,99689.16
2023-03-04T11:41:12.148Z,99688.47
2023-03-04T11:43:47.743Z,99689.44
2023-03-04T11:46:56.029Z,99686.19
2023-03-04T11:50:03.789Z,99678.84
2023-03-04T11:52:53.550Z,99682.63
2023-03-04T11:55:36.912Z,99679.28
2023-03-04T11:58:35.157Z,99671.84
2023-03-04T12:01:11.367Z,99667.81
2023-03-04T12:04:18.391Z,99664.00
2023-03-04T12:07:02.071Z,99656.84
2023-03-04T12:09:48.085Z,99654.94
2023-03-04T12:12:35.950Z,99647.91
2023-03-04T12:15:18.685Z,99648.38
2023-03-04T12:18:14.259Z,99644.88
2023-03-04T12:21:16.959Z,99645.84
2023-03-04T12:24:12.361Z,99642.59
2023-03-04T12:26:52.046Z,99635.47
2023-03-04T12:29:32.986Z,99638.53
2023-03-04T12:32:14.502Z,99631.69
2023-03-04T12:35:04.503Z,99630.97
2023-03-04T12:37:58.559Z,99630.66
2023-03-04T12:40:44.104Z,99624.78
2023-03-04T12:43:36.291Z,99626.41
2023-03-04T12:46:21.665Z,99627.56
2023-03-04T12:49:09.050Z,99618.06
2023-03-04T12:51:51.459Z,99618.34
2023-03-04T12:54:33.007Z,99618.56
2023-03-04T12:57:11.868Z,99615.81
2023-03-04T12:59:53.613Z,99618.44
2023-03-04T13:02:43.178Z,99622.38
2023-03-04T13:05:40.636Z,99624.72
2023-03-04T13:08:25.005Z,99614.72
2023-03-04T13:11:04.902Z,99608.47
2023-03-04T13:13:41.823Z,99607.31
2023-03-04T13:16:33.701Z,99601.97
2023-03-04T13:19:39.951Z,99600.09
2023-03-04T13:22:44.003Z,99598.75
2023-03-04T13:25:35.070Z,99592.91
2023-03-04T13:28:27.543Z,99578.72
2023-03-04T13:31:13.490Z,99583.28
2023-03-04T13:34:01.179Z,99591.50
2023-03-04T13:36:59.131Z,99580.94
2023-03-04T13:39:36.818Z,99578.16
2023-03-04T13:42:41.016Z,99578.75
2023-03-04T13:45:34.230Z,99574.97
2023-03-04T13:48:24.338Z,99564.91
2023-03-04T13:50:57.842Z,99566.63
2023-03-04T13:53:54.782Z,99567.41
2023-03-04T13:56:36.994Z,99562.16
2023-03-04T13:59:22.173Z,99556.78
2023-03-04T14:02:17.121Z,99552.69
2023-03-04T14:04:59.863Z,99553.53
2023-03-04T14:07:35.081Z,99559.78
2023-03-04T14:10:23.271Z,99555.28
2023-03-04T14:12:59.198Z,99549.31
2023-03-04T14:15:35.358Z,99548.44
2023-03-04T14:18:12.934Z,99553.50
2023-03-04T14:20:50.538Z,99546.44
2023-03-04T14:23:29.258Z,99538.00
2023-03-04T14:26:06.736Z,99533.56
2023-03-04T14:28:48.134Z,99534.22
2023-03-04T14:31:24.975Z,99533.38
2023-03-04T14:34:02.791Z,99528.78
2023-03-04T14:36:38.892Z,99524.16
2023-03-04T14:39:18.191Z,99518.06
2023-03-04T14:41:52.683Z,99520.09
2023-03-04T14:44:36.033Z,99521.97
2023-03-04T14:47:19.732Z,99509.81
2023-03-04T14:49:54.204Z,99513.78
2023-03-04T14:52:32.803Z,99507.06
2023-03-04T14:55:25.108Z,99507.91
2023-03-04T14:58:08.400Z,99501.06
2023-03-04T15:00:42.082Z,99502.22
2023-03-04T15:03:22.144Z,99505.72
2023-03-04T15:05:58.448Z,99497.09
2023-03-04T15:08:36.540Z,99497.88
2023-03-04T15:11:15.073Z,99498.53
2023-03-04T15:13:50.493Z,99504.06
2023-03-04T15:16:25.870Z,99501.28
2023-03-04T15:19:03.290Z,99501.66
2023-03-04T15:21:40.223Z,99495.25
2023-03-04T15:24:15.471Z,99497.19
2023-03-04T15:26:50.839Z,99501.97
2023-03-04T15:29:23.990Z,99491.72
2023-03-04T15:31:57.256Z,99486.63
2023-03-04T15:34:30.316Z,99490.56
2023-03-04T15:37:04.715Z,99493.69
2023-03-04T15:39:37.887Z,99485.53
2023-03-04T15:42:13.640Z,99489.72
2023-03-04T15:44:46.967Z,99479.50
2023-03-04T15:47:19.933Z,99485.94
2023-03-04T15:49:53.551Z,99479.16
2023-03-04T15:52:27.700Z,99491.84
2023-03-04T15:55:00.598Z,99485.41
2023-03-04T15:57:34.296Z,99475.16
2023-03-04T16:00:09.059Z,99485.31
2023-03-04T16:02:44.581Z,99479.00
2023-03-04T16:05:17.976Z,99479.16
2023-03-04T16:07:53.459Z,99487.22
2023-03-04T16:10:29.781Z,99484.06
2023-03-04T16:13:02.650Z,99477.13
2023-03-04T16:15:35.581Z,99481.06
2023-03-04T16:18:10.917Z,99478.66
2023-03-04T16:20:54.344Z,99473.56
2023-03-04T16:23:28.865Z,99468.88
2023-03-04T16:26:01.792Z,99472.66
2023-03-04T16:28:34.751Z,99470.72
2023-03-04T16:31:08.106Z,99469.25
2023-03-04T16:33:41.195Z,99469.25
2023-03-04T16:36:16.973Z,99464.88
2023-03-04T16:38:52.660Z,99476.53
2023-03-04T16:41:28.522Z,99473.13
2023-03-04T16:44:02.329Z,99469.81
2023-03-04T16:46:35.666Z,99466.84
2023-03-04T16:49:08.737Z,99468.63
2023-03-04T16:51:44.609Z,99466.78
2023-03-04T16:54:23.905Z,99476.09
2023-03-04T16:56:57.208Z,99477.19
2023-03-04T16:59:30.707Z,99475.63
2023-03-04T17:02:03.852Z,99475.50
2023-03-04T17:04:36.788Z,99479.84
2023-03-04T17:07:09.634Z,99481.84
2023-03-04T17:09:44.121Z,99475.41
2023-03-04T17:12:16.992Z,99478.34
2023-03-04T17:14:49.850Z,99478.75
2023-03-04T17:17:32.956Z,99474.19
2023-03-04T17:20:07.015Z,99477.47
2023-03-04T17:22:39.880Z,99475.31
2023-03-04T17:25:15.221Z,99474.22
2023-03-04T17:27:48.248Z,99483.69
2023-03-04T17:30:21.041Z,99488.06
2023-03-04T17:32:53.960Z,99480.03
2023-03-04T17:35:26.929Z,99493.81
2023-03-04T17:38:00.123Z,99491.53
2023-03-04T17:40:34.629Z,99496.66
2023-03-04T17:43:11.424Z,99494.56
2023-03-04T17:45:45.436Z,99498.28
2023-03-04T17:48:18.434Z,99495.31
2023-03-04T17:50:51.875Z,99500.09
2023-03-04T17:53:24.693Z,99496.13
2023-03-04T17:56:01.680Z,99495.03
2023-03-04T17:58:36.872Z,99490.19
2023-03-04T18:01:17.687Z,99491.88
2023-03-04T18:03:51.622Z,99491.47
2023-03-04T18:06:25.344Z,99490.59
2023-03-04T18:08:58.415Z,99500.44
2023-03-04T18:11:34.635Z,99484.25
2023-03-04T18:14:07.839Z,99483.38
2023-03-04T18:16:40.867Z,99478.44
2023-03-04T18:19:13.781Z,99477.59
2023-03-04T18:21:46.874Z,99481.50
2023-03-04T18:24:19.673Z,99479.41
2023-03-04T18:26:54.590Z,99477.03
2023-03-04T18:29:28.492Z,99470.38
2023-03-04T18:32:02.081Z,99468.34
2023-03-04T18:34:35.030Z,99475.50
2023-03-04T18:37:08.016Z,99467.22
2023-03-04T18:39:40.926Z,99458.94
2023-03-04T18:42:15.508Z,99466.00
2023-03-04T18:44:48.477Z,99461.81
2023-03-04T18:47:22.586Z,99453.47
2023-03-04T18:49:55.446Z,99459.50
2023-03-04T18:52:28.401Z,99461.66
2023-03-04T18:55:01.258Z,99456.00
2023-03-04T18:57:35.804Z,99444.56
2023-03-04T19:00:10.644Z,99441.00
2023-03-04T19:02:48.014Z,99448.44
2023-03-04T19:05:26.666Z,99440.72
2023-03-04T19:08:00.741Z,99443.00
2023-03-04T19:10:34.135Z,99438.13
2023-03-04T19:13:10.191Z,99442.63
2023-03-04T19:15:44.217Z,99440.78
2023-03-04T19:18:18.349Z,99444.78
2023-03-04T19:20:52.363Z,99437.41
2023-03-04T19:23:27.394Z,99439.34
2023-03-04T19:26:01.156Z,99450.97
2023-03-04T19:28:36.690Z,99449.22
2023-03-04T19:31:11.379Z,99454.38
2023-03-04T19:33:44.341Z,99454.06
2023-03-04T19:36:17.772Z,99447.06
2023-03-04T19:38:51.044Z,99443.50
2023-03-04T19:41:24.569Z,99443.19
2023-03-04T19:43:59.776Z,99453.47
2023-03-04T19:46:32.918Z,99452.19
2023-03-04T19:49:06.051Z,99451.44
2023-03-04T19:51:39.147Z,99460.47
2023-03-04T19:54:12.119Z,99450.88
2023-03-04T19:56:45.074Z,99452.03
2023-03-04T19:59:19.364Z,99453.50
2023-03-04T20:01:52.265Z,99443.88
2023-03-04T20:04:25.438Z,99448.84
2023-03-04T20:06:58.495Z,99446.19
2023-03-04T20:09:31.313Z,99451.13
2023-03-04T20:12:04.440Z,99450.97
2023-03-04T20:14:39.341Z,99440.38
2023-03-04T20:17:12.365Z,99442.91
2023-03-04T20:19:46.151Z,99437.09
2023-03-04T20:22:19.149Z,99446.97
2023-03-04T20:24:53.852Z,99443.75
2023-03-04T20:27:26.746Z,99444.47
2023-03-04T20:30:03.653Z,99451.47
2023-03-04T20:32:36.968Z,99447.16
2023-03-04T20:35:14.074Z,99446.84
2023-03-04T20:37:47.445Z,99445.84
2023-03-04T20:40:20.544Z,99439.63
2023-03-04T20:42:53.429Z,99449.34
2023-03-04T20:45:27.666Z,99441.41
2023-03-04T20:48:00.734Z,99441.66
2023-03-04T20:50:33.522Z,99445.81
2023-03-04T20:53:06.675Z,99448.31
2023-03-04T20:55:39.509Z,99439.53
2023-03-04T20:58:12.504Z,99431.72
2023-03-04T21:00:48.544Z,99436.94
2023-03-04T21:03:21.482Z,99436.25
2023-03-04T21:05:54.285Z,99441.09
2023-03-04T21:08:27.065Z,99439.53
2023-03-04T21:10:59.988Z,99436.69
2023-03-04T21:13:33.099Z,99440.22
2023-03-04T21:16:13.162Z,99431.59
2023-03-04T21:18:46.181Z,99436.31
2023-03-04T21:21:22.181Z,99438.25
2023-03-04T21:23:57.097Z,99436.38
2023-03-04T21:26:31.173Z,99432.09
2023-03-04T21:29:04.477Z,99429.56
2023-03-04T21:31:42.547Z,99426.84
2023-03-04T21:34:18.576Z,99434.16
2023-03-04T21:36:52.370Z,99430.28
2023-03-04T21:39:26.155Z,99432.16
2023-03-04T21:42:00.442Z,99425.13
2023-03-04T21:44:48.685Z,99425.31
2023-03-04T21:47:23.963Z,99424.38
2023-03-04T21:49:56.792Z,99434.50
2023-03-04T21:52:30.024Z,99422.56
2023-03-04T21:55:02.958Z,99423.72
2023-03-04T21:57:35.738Z,99433.59
2023-03-04T22:00:10.598Z,99424.44
2023-03-04T22:02:48.050Z,99416.25
2023-03-04T22:05:20.804Z,99424.88
2023-03-04T22:07:53.733Z,99421.34
2023-03-04T22:10:26.669Z,99427.38
2023-03-04T22:13:00.407Z,99428.28
2023-03-04T22:15:33.369Z,99430.31
2023-03-04T22:18:10.182Z,99424.09
2023-03-04T22:20:45.233Z,99421.03
2023-03-04T22:23:20.147Z,99424.34
2023-03-04T22:25:53.013Z,99426.47
2023-03-04T22:28:28.442Z,99424.88
2023-03-04T22:31:01.995Z,99421.44
2023-03-04T22:33:37.299Z,99429.09
2023-03-04T22:36:10.749Z,99430.50
2023-03-04T22:38:44.774Z,99423.06
2023-03-04T22:41:19.028Z,99427.69
2023-03-04T22:43:52.386Z,99423.97
2023-03-04T22:46:28.222Z,99426.06
2023-03-04T22:49:05.453Z,99418.94
2023-03-04T22:51:41.214Z,99418.84
2023-03-04T22:54:15.230Z,99416.25
2023-03-04T22:56:48.286Z,99417.38
2023-03-04T22:59:21.379Z,99415.50
2023-03-04T23:01:54.287Z,99400.91
2023-03-04T23:04:28.701Z,99402.91
2023-03-04T23:07:01.690Z,99403.56
2023-03-04T23:09:34.984Z,99406.59
2023-03-04T23:12:09.072Z,99395.09
2023-03-04T23:14:44.888Z,99407.88
2023-03-04T23:17:17.929Z,99399.53
2023-03-04T23:19:52.275Z,99398.88
2023-03-04T23:22:25.152Z,99398.72
2023-03-04T23:24:58.907Z,99401.00
2023-03-04T23:27:31.836Z,99402.06
2023-03-04T23:30:06.041Z,99393.84
2023-03-04T23:32:39.048Z,99401.16
2023-03-04T23:35:13.616Z,99392.84
2023-03-04T23:37:46.574Z,99395.72
2023-03-04T23:40:20.151Z,99395.38
2023-03-04T23:42:52.977Z,99393.78
2023-03-04T23:45:25.850Z,99396.13
2023-03-04T23:47:58.676Z,99387.00
2023-03-04T23:50:34.158Z,99385.34
2023-03-04T23:53:06.976Z,99383.59
2023-03-04T23:55:42.428Z,99382.16
2023-03-04T23:58:15.754Z,99378.56
